Time;durP1;ratioP1;P1;durP2;ratioP2;P2;SDS_P1;SDS_P2;PMS_P1;PMS_P2;Temp;Humidity;BMP_temperature;BMP_pressure;BME280_temperature;BME280_humidity;BME280_pressure;Samples;Min_cycle;Max_cycle;Signal;HPM_P1;HPM_P2
2023/11/04 00:02:04;;;;;;;2.33;1.27;;;23.30;58.70;;;;;;10285022;28;20277;-51
2023/11/04 00:07:09;;;;;;;2.42;1.20;;;23.20;58.60;;;;;;10285643;28;20277;-51
2023/11/04 00:12:13;;;;;;;1.42;1.00;;;23.20;58.60;;;;;;10286191;28;20218;-48
2023/11/04 00:17:17;;;;;;;4.72;1.20;;;23.30;58.60;;;;;;10283225;28;20304;-52
2023/11/04 00:22:22;;;;;;;6.80;1.83;;;23.20;58.60;;;;;;10287498;28;20308;-56
2023/11/04 00:27:25;;;;;;;8.88;1.65;;;23.20;58.60;;;;;;10285076;28;20257;-51
2023/11/04 00:32:29;;;;;;;6.85;1.60;;;23.20;58.60;;;;;;10288423;28;20586;-52
2023/11/04 00:37:34;;;;;;;7.43;1.23;;;23.20;58.60;;;;;;10289808;28;20653;-51
2023/11/04 00:42:38;;;;;;;2.15;1.25;;;23.20;58.60;;;;;;10284997;28;20226;-51
2023/11/04 00:47:42;;;;;;;2.30;1.05;;;23.20;58.50;;;;;;10276445;28;20226;-53
2023/11/04 00:52:47;;;;;;;2.85;0.95;;;23.20;58.60;;;;;;10279736;28;20725;-51
2023/11/04 00:57:51;;;;;;;2.08;1.15;;;23.20;58.60;;;;;;10280568;28;20230;-50
2023/11/04 01:02:55;;;;;;;3.25;1.30;;;23.20;58.60;;;;;;10278989;28;20253;-51
2023/11/04 01:08:01;;;;;;;1.83;1.08;;;23.20;58.60;;;;;;10286725;28;20304;-50
2023/11/04 01:13:04;;;;;;;2.15;0.98;;;23.20;59.20;;;;;;10280900;28;20340;-53
2023/11/04 01:18:08;;;;;;;1.77;0.93;;;23.20;58.50;;;;;;10281433;28;20273;-56
2023/11/04 01:23:14;;;;;;;3.13;1.00;;;23.20;58.50;;;;;;10277866;28;20242;-51
2023/11/04 01:28:17;;;;;;;2.50;0.90;;;23.20;58.50;;;;;;10284955;28;20308;-52
2023/11/04 01:33:21;;;;;;;1.15;0.80;;;23.20;58.50;;;;;;10285704;28;20194;-50
2023/11/04 01:38:26;;;;;;;2.53;1.10;;;23.20;58.50;;;;;;10286618;28;20214;-52
2023/11/04 01:43:30;;;;;;;1.48;1.02;;;23.20;58.50;;;;;;10274919;28;20250;-50
2023/11/04 01:48:34;;;;;;;2.30;1.33;;;23.20;58.50;;;;;;10275707;28;20288;-50
2023/11/04 01:53:42;;;;;;;1.83;0.90;;;23.20;58.50;;;;;;10283814;28;20207;-50
2023/11/04 01:58:47;;;;;;;2.67;1.10;;;23.20;58.50;;;;;;10285899;28;20229;-50
2023/11/04 02:03:51;;;;;;;1.48;0.70;;;23.20;58.50;;;;;;10291525;28;20249;-51
2023/11/04 02:08:57;;;;;;;1.17;0.70;;;23.20;58.50;;;;;;10284876;28;20268;-50
2023/11/04 02:14:01;;;;;;;1.35;0.82;;;23.20;58.50;;;;;;10273545;28;20223;-52
2023/11/04 02:19:06;;;;;;;1.20;0.77;;;23.20;58.50;;;;;;10283183;28;20229;-50
2023/11/04 02:24:11;;;;;;;1.60;1.00;;;23.20;58.50;;;;;;10278081;28;20218;-51
2023/11/04 02:29:15;;;;;;;1.20;0.80;;;23.20;58.40;;;;;;10291589;28;20281;-50
2023/11/04 02:34:19;;;;;;;1.30;0.90;;;23.20;58.40;;;;;;10283948;28;20210;-49
2023/11/04 02:39:24;;;;;;;1.90;0.90;;;23.20;58.50;;;;;;10279973;28;20249;-53
2023/11/04 02:44:28;;;;;;;2.38;1.00;;;23.20;58.50;;;;;;10286381;28;20577;-51
2023/11/04 02:49:31;;;;;;;1.63;0.80;;;23.20;58.40;;;;;;10289729;28;20284;-51
2023/11/04 02:54:36;;;;;;;1.25;0.60;;;23.20;58.40;;;;;;10285213;28;20206;-52
2023/11/04 02:59:40;;;;;;;1.23;0.82;;;23.20;58.40;;;;;;10279746;28;20257;-57
2023/11/04 03:04:44;;;;;;;1.58;0.95;;;23.20;58.40;;;;;;10278467;28;20638;-51
2023/11/04 03:09:49;;;;;;;0.68;0.68;;;23.20;58.40;;;;;;10278358;28;20779;-49
2023/11/04 03:14:53;;;;;;;0.63;0.55;;;23.20;58.40;;;;;;10286088;28;20269;-51
2023/11/04 03:19:56;;;;;;;1.02;0.80;;;23.20;58.30;;;;;;10288800;28;20234;-52
2023/11/04 03:25:04;;;;;;;1.85;0.65;;;23.20;59.00;;;;;;10287018;28;20305;-51
2023/11/04 03:30:10;;;;;;;0.80;0.77;;;23.20;58.40;;;;;;10286492;28;20226;-52
2023/11/04 03:35:13;;;;;;;0.90;0.70;;;23.20;58.30;;;;;;10289522;28;20649;-50
2023/11/04 03:40:18;;;;;;;3.15;0.82;;;23.20;58.40;;;;;;10290698;28;20214;-53
2023/11/04 03:45:23;;;;;;;0.80;0.80;;;23.20;58.30;;;;;;10282790;28;20698;-53
2023/11/04 03:50:26;;;;;;;10.20;1.25;;;23.20;58.30;;;;;;10279496;28;20273;-52
2023/11/04 03:55:31;;;;;;;3.45;0.77;;;23.20;58.30;;;;;;10254282;28;20253;-51
2023/11/04 04:00:35;;;;;;;12.52;1.52;;;23.20;58.40;;;;;;10280903;28;20238;-54
2023/11/04 04:05:38;;;;;;;10.45;1.42;;;23.20;58.30;;;;;;10281797;28;20253;-55
2023/11/04 04:10:43;;;;;;;6.47;1.38;;;23.20;58.30;;;;;;10282769;28;20234;-58
2023/11/04 04:15:47;;;;;;;6.85;1.05;;;23.20;58.40;;;;;;10279166;28;20704;-55
2023/11/04 04:20:51;;;;;;;7.57;1.38;;;23.20;58.30;;;;;;10283384;28;21321;-57
2023/11/04 04:25:56;;;;;;;6.47;1.00;;;23.20;58.30;;;;;;10284225;28;20657;-54
2023/11/04 04:30:59;;;;;;;2.88;0.70;;;23.20;58.30;;;;;;10283318;28;20263;-57
2023/11/04 04:36:04;;;;;;;4.65;0.98;;;23.20;58.30;;;;;;10282885;28;20277;-56
2023/11/04 04:41:09;;;;;;;3.63;0.80;;;23.20;58.30;;;;;;10285393;28;20363;-56
2023/11/04 04:46:13;;;;;;;1.77;1.15;;;23.20;58.30;;;;;;10281855;28;20308;-57
2023/11/04 04:51:18;;;;;;;1.30;0.60;;;23.10;58.20;;;;;;10286207;28;20696;-56
2023/11/04 04:56:24;;;;;;;2.75;0.73;;;23.20;58.30;;;;;;10285381;28;20300;-57
2023/11/04 05:01:27;;;;;;;3.33;0.63;;;23.10;58.20;;;;;;10283992;28;20901;-54
2023/11/04 05:06:33;;;;;;;3.10;0.70;;;23.10;58.20;;;;;;10282825;28;20254;-57
2023/11/04 05:11:38;;;;;;;1.48;0.65;;;23.10;58.30;;;;;;10283000;28;20741;-56
2023/11/04 05:16:41;;;;;;;2.78;0.85;;;23.10;58.20;;;;;;10277605;28;21085;-56
2023/11/04 05:21:45;;;;;;;1.75;0.60;;;23.10;58.20;;;;;;10284341;28;20202;-56
2023/11/04 05:26:51;;;;;;;1.50;0.70;;;23.20;58.30;;;;;;10283953;28;20300;-56
2023/11/04 05:31:54;;;;;;;1.20;0.73;;;23.20;58.30;;;;;;10283406;28;20624;-57
2023/11/04 05:36:58;;;;;;;1.27;0.90;;;23.10;58.20;;;;;;10289589;28;20755;-57
2023/11/04 05:42:03;;;;;;;0.85;0.70;;;23.20;58.30;;;;;;10286160;28;20764;-58
2023/11/04 05:47:06;;;;;;;0.90;0.68;;;23.10;58.20;;;;;;10280973;28;20712;-56
2023/11/04 05:52:10;;;;;;;2.13;0.63;;;23.10;58.10;;;;;;10280468;28;20238;-60
2023/11/04 05:57:16;;;;;;;1.75;0.77;;;23.10;58.20;;;;;;10284746;28;20230;-58
2023/11/04 06:02:19;;;;;;;2.88;0.60;;;23.10;58.10;;;;;;10282278;28;20253;-53
2023/11/04 06:07:23;;;;;;;1.27;0.52;;;23.20;58.30;;;;;;10315786;28;20222;-60
2023/11/04 06:12:28;;;;;;;2.15;0.65;;;23.20;58.20;;;;;;10321624;28;20197;-57
2023/11/04 06:17:31;;;;;;;1.85;0.50;;;23.30;58.20;;;;;;10321018;28;20239;-54
2023/11/04 06:22:35;;;;;;;1.60;0.88;;;23.40;58.20;;;;;;10317624;28;21835;-57
2023/11/04 06:27:40;;;;;;;0.88;0.50;;;23.40;58.20;;;;;;10322124;28;20319;-50
2023/11/04 06:32:43;;;;;;;2.83;0.70;;;23.50;58.30;;;;;;10318880;28;20225;-50
2023/11/04 06:37:47;;;;;;;1.27;0.57;;;23.50;58.30;;;;;;10318369;28;20226;-51
2023/11/04 06:42:52;;;;;;;2.38;0.50;;;23.50;58.20;;;;;;10319018;28;20249;-50
2023/11/04 06:47:59;;;;;;;1.75;0.60;;;23.50;58.30;;;;;;10318287;28;21564;-58
2023/11/04 06:53:03;;;;;;;1.23;0.50;;;23.60;58.30;;;;;;10327370;28;20280;-58
2023/11/04 06:58:09;;;;;;;2.50;0.50;;;23.60;58.30;;;;;;10327613;28;20249;-51
2023/11/04 07:03:12;;;;;;;3.35;0.52;;;23.60;58.30;;;;;;10318983;28;20249;-54
2023/11/04 07:08:16;;;;;;;2.67;0.73;;;23.60;58.30;;;;;;10322411;28;20245;-56
2023/11/04 07:13:21;;;;;;;4.13;0.80;;;23.60;58.30;;;;;;10320630;28;20729;-53
2023/11/04 07:18:26;;;;;;;2.35;0.70;;;23.60;58.30;;;;;;10324498;28;20245;-52
2023/11/04 07:23:30;;;;;;;1.98;0.70;;;23.60;58.20;;;;;;10319611;28;20254;-61
2023/11/04 07:28:35;;;;;;;9.45;0.60;;;23.60;58.20;;;;;;10332552;28;20229;-56
2023/11/04 07:33:40;;;;;;;0.68;0.50;;;23.60;58.20;;;;;;10315756;28;20691;-58
2023/11/04 07:38:44;;;;;;;0.80;0.45;;;23.30;56.20;;;;;;10316426;28;20769;-64
2023/11/04 07:43:49;;;;;;;1.27;0.43;;;22.90;56.30;;;;;;10324458;28;20252;-56
2023/11/04 07:48:52;;;;;;;2.17;0.28;;;22.90;56.50;;;;;;10328620;28;20275;-57
2023/11/04 07:53:56;;;;;;;2.33;0.50;;;22.90;56.50;;;;;;10323236;28;20283;-55
2023/11/04 07:59:01;;;;;;;1.52;0.50;;;23.00;56.60;;;;;;10321215;28;20725;-53
2023/11/04 08:04:05;;;;;;;2.50;0.63;;;23.10;56.60;;;;;;10317921;28;20245;-55
2023/11/04 08:09:10;;;;;;;4.45;0.90;;;23.20;56.70;;;;;;10284498;28;20246;-52
2023/11/04 08:14:16;;;;;;;4.53;0.90;;;23.20;56.70;;;;;;10314993;28;20226;-55
2023/11/04 08:19:19;;;;;;;3.25;0.80;;;23.20;56.70;;;;;;10314312;28;20716;-54
2023/11/04 08:24:23;;;;;;;4.53;0.80;;;23.20;56.70;;;;;;10313543;28;20249;-55
2023/11/04 08:29:29;;;;;;;1.65;0.65;;;23.20;57.30;;;;;;10309326;28;20734;-56
2023/11/04 08:34:35;;;;;;;1.88;0.65;;;23.30;56.80;;;;;;10319033;28;20685;-55
2023/11/04 08:39:38;;;;;;;1.98;0.68;;;23.20;56.70;;;;;;10317121;28;20276;-56
2023/11/04 08:44:43;;;;;;;3.63;0.60;;;23.30;56.80;;;;;;10283025;28;21941;-51
2023/11/04 08:49:47;;;;;;;3.05;0.75;;;23.20;56.80;;;;;;10310056;28;20307;-53
2023/11/04 08:54:51;;;;;;;1.65;0.60;;;23.20;56.80;;;;;;10315336;28;20316;-54
2023/11/04 08:59:56;;;;;;;0.90;0.65;;;23.20;56.80;;;;;;10319938;28;21061;-51
2023/11/04 09:05:00;;;;;;;1.45;0.60;;;23.30;56.90;;;;;;10315244;28;20685;-54
2023/11/04 09:10:11;;;;;;;2.83;0.45;;;23.30;56.90;;;;;;10311316;28;20296;-53
2023/11/04 09:15:16;;;;;;;6.43;1.02;;;23.30;56.90;;;;;;10310947;28;20331;-50
2023/11/04 09:20:19;;;;;;;2.22;1.17;;;23.30;57.00;;;;;;10313839;28;20229;-53
2023/11/04 09:25:24;;;;;;;7.97;0.90;;;23.40;57.20;;;;;;10315291;28;20249;-53
2023/11/04 09:30:29;;;;;;;5.28;1.15;;;23.40;57.20;;;;;;10313163;28;20225;-54
2023/11/04 09:35:33;;;;;;;5.13;1.10;;;23.40;57.20;;;;;;10308948;28;20242;-54
2023/11/04 09:40:36;;;;;;;3.00;1.30;;;23.40;57.20;;;;;;10305674;28;20265;-53
2023/11/04 09:45:41;;;;;;;3.80;0.80;;;23.40;57.30;;;;;;10310973;28;20249;-55
2023/11/04 09:50:45;;;;;;;3.65;0.90;;;23.30;57.20;;;;;;10313603;28;20260;-53
2023/11/04 09:55:51;;;;;;;2.05;0.90;;;23.30;57.20;;;;;;10310931;28;20221;-56
2023/11/04 10:00:57;;;;;;;2.70;0.73;;;23.30;57.20;;;;;;10317366;28;20245;-56
2023/11/04 10:06:02;;;;;;;4.70;0.85;;;23.30;57.20;;;;;;10324271;28;20279;-54
2023/11/04 10:11:06;;;;;;;1.25;0.70;;;23.30;57.20;;;;;;10323998;28;20256;-55
2023/11/04 10:16:13;;;;;;;1.70;0.80;;;23.30;57.20;;;;;;10304258;28;20273;-55
2023/11/04 10:21:19;;;;;;;1.67;0.60;;;23.30;57.20;;;;;;10316899;28;20260;-54
2023/11/04 10:26:27;;;;;;;2.03;0.63;;;23.30;57.20;;;;;;10320645;28;20252;-57
2023/11/04 10:31:34;;;;;;;1.80;0.73;;;23.30;57.20;;;;;;10319051;28;20229;-54
2023/11/04 10:36:38;;;;;;;0.82;0.47;;;23.30;57.20;;;;;;10316526;28;20304;-52
2023/11/04 10:41:44;;;;;;;1.85;0.50;;;23.30;57.20;;;;;;10322008;28;20279;-57
2023/11/04 10:46:57;;;;;;;3.45;0.70;;;23.30;57.20;;;;;;10318487;28;20759;-56
2023/11/04 10:52:04;;;;;;;2.00;0.70;;;23.20;57.10;;;;;;10319715;28;20202;-52
2023/11/04 10:57:17;;;;;;;2.10;0.60;;;23.20;57.20;;;;;;10316534;28;20241;-52
2023/11/04 11:02:24;;;;;;;0.80;0.55;;;23.30;57.20;;;;;;10324713;28;20225;-56
2023/11/04 11:07:28;;;;;;;1.60;0.52;;;23.30;57.30;;;;;;10318176;28;20229;-51
2023/11/04 11:12:34;;;;;;;1.25;0.50;;;23.30;57.20;;;;;;10325608;28;20201;-53
2023/11/04 11:17:40;;;;;;;2.03;0.60;;;23.20;57.20;;;;;;10328238;28;20222;-54
2023/11/04 11:22:43;;;;;;;1.88;0.73;;;23.20;57.20;;;;;;10318340;28;20296;-50
2023/11/04 11:27:47;;;;;;;1.15;0.60;;;23.20;57.20;;;;;;10328504;28;20245;-53
2023/11/04 11:32:52;;;;;;;2.58;0.68;;;23.20;57.20;;;;;;10329148;28;20663;-52
2023/11/04 11:37:55;;;;;;;1.92;0.50;;;23.20;57.80;;;;;;10324366;28;20217;-54
2023/11/04 11:42:59;;;;;;;1.27;0.50;;;23.20;57.20;;;;;;10324607;28;20226;-52
2023/11/04 11:48:04;;;;;;;1.50;0.80;;;23.20;57.10;;;;;;10319155;28;20249;-52
2023/11/04 11:53:10;;;;;;;1.40;0.50;;;23.20;57.10;;;;;;10293612;28;20692;-51
2023/11/04 11:58:14;;;;;;;1.65;0.52;;;23.20;57.10;;;;;;10320363;28;20222;-53
2023/11/04 12:03:20;;;;;;;2.63;0.75;;;23.20;57.10;;;;;;10285670;28;20202;-53
2023/11/04 12:08:24;;;;;;;1.85;0.60;;;23.20;57.80;;;;;;10316024;28;20275;-53
2023/11/04 12:13:28;;;;;;;3.00;0.98;;;23.20;57.20;;;;;;10316664;28;20233;-59
2023/11/04 12:18:33;;;;;;;4.88;1.00;;;23.20;57.20;;;;;;10314496;28;20229;-56
2023/11/04 12:23:37;;;;;;;3.97;0.98;;;23.30;57.30;;;;;;10323086;28;20685;-56
2023/11/04 12:28:43;;;;;;;3.22;0.90;;;23.20;57.20;;;;;;10327845;28;20310;-52
2023/11/04 12:33:50;;;;;;;3.25;1.00;;;23.30;57.20;;;;;;10321334;28;20665;-59
2023/11/04 12:38:54;;;;;;;7.63;1.52;;;23.20;57.20;;;;;;10317890;28;20245;-58
2023/11/04 12:44:01;;;;;;;35.50;8.70;;;23.30;57.30;;;;;;10321656;28;20319;-57
2023/11/04 12:49:07;;;;;;;50.95;11.75;;;23.30;57.30;;;;;;10321788;28;20630;-55
2023/11/04 12:54:12;;;;;;;71.10;18.35;;;23.30;57.30;;;;;;10324561;28;20680;-58
2023/11/04 12:59:15;;;;;;;67.55;16.42;;;23.20;57.30;;;;;;10317184;28;20646;-56
2023/11/04 13:04:21;;;;;;;89.57;23.33;;;23.30;57.50;;;;;;10319263;28;20248;-54
2023/11/04 13:09:30;;;;;;;84.00;21.73;;;23.30;57.60;;;;;;10321623;28;20278;-57
2023/11/04 13:14:34;;;;;;;79.93;22.42;;;23.30;57.60;;;;;;10298441;28;20230;-58
2023/11/04 13:19:39;;;;;;;83.55;20.88;;;23.30;57.70;;;;;;10314276;28;20230;-58
2023/11/04 13:24:43;;;;;;;95.18;25.17;;;23.30;57.80;;;;;;10318128;28;20259;-58
2023/11/04 13:29:47;;;;;;;83.72;22.85;;;23.40;58.00;;;;;;10315760;28;20669;-61
2023/11/04 13:34:52;;;;;;;97.03;25.90;;;23.40;58.10;;;;;;10318026;28;20202;-61
2023/11/04 13:39:56;;;;;;;75.43;22.35;;;23.40;58.20;;;;;;10322535;28;20574;-59
2023/11/04 13:45:00;;;;;;;69.65;21.42;;;23.40;58.30;;;;;;10322311;28;20225;-54
2023/11/04 13:50:07;;;;;;;63.15;19.77;;;23.40;58.40;;;;;;10302614;28;20703;-50
2023/11/04 13:55:10;;;;;;;85.20;24.17;;;23.40;58.50;;;;;;10324777;28;20558;-45
2023/11/04 14:00:14;;;;;;;81.63;24.98;;;23.40;58.50;;;;;;10322989;28;20225;-48
2023/11/04 14:05:20;;;;;;;68.03;21.15;;;23.40;58.60;;;;;;10311501;28;20645;-49
2023/11/04 14:10:25;;;;;;;64.53;22.35;;;23.50;58.80;;;;;;10315632;28;20628;-50
2023/11/04 14:15:29;;;;;;;61.78;21.80;;;23.40;58.70;;;;;;10316497;28;20249;-49
2023/11/04 14:20:34;;;;;;;59.13;22.95;;;23.40;58.70;;;;;;10316259;28;20234;-50
2023/11/04 14:25:37;;;;;;;57.17;22.92;;;23.40;58.80;;;;;;10321549;28;20257;-49
2023/11/04 14:30:41;;;;;;;63.53;25.42;;;23.40;58.80;;;;;;10297026;28;20221;-57
2023/11/04 14:35:46;;;;;;;59.72;23.67;;;23.40;58.90;;;;;;10316087;28;20647;-54
2023/11/04 14:40:50;;;;;;;52.92;24.58;;;23.40;58.80;;;;;;10321708;28;20255;-53
2023/11/04 14:45:53;;;;;;;49.67;22.85;;;23.40;58.80;;;;;;10289250;28;20634;-55
2023/11/04 14:50:58;;;;;;;9.07;4.57;;;23.40;58.80;;;;;;10288583;28;20279;-52
2023/11/04 14:56:02;;;;;;;1.80;1.00;;;23.30;57.80;;;;;;10312894;28;20222;-49
2023/11/04 15:01:08;;;;;;;2.85;0.90;;;23.10;57.00;;;;;;10311196;28;20237;-53
2023/11/04 15:06:13;;;;;;;1.92;0.80;;;22.90;56.50;;;;;;10301879;28;20230;-52
2023/11/04 15:11:18;;;;;;;2.33;1.58;;;22.70;56.60;;;;;;10314046;28;20230;-51
2023/11/04 15:16:21;;;;;;;1.58;0.70;;;22.60;55.70;;;;;;10315771;28;20293;-55
2023/11/04 15:21:27;;;;;;;1.30;0.95;;;22.50;55.40;;;;;;10325483;28;20253;-56
2023/11/04 15:26:31;;;;;;;1.95;0.75;;;22.30;55.30;;;;;;10326671;28;20225;-53
2023/11/04 15:31:35;;;;;;;2.03;0.88;;;22.30;55.80;;;;;;10323616;28;20206;-50
2023/11/04 15:36:40;;;;;;;2.00;0.80;;;22.50;56.00;;;;;;10302784;28;20218;-58
2023/11/04 15:41:44;;;;;;;3.13;1.30;;;22.70;56.10;;;;;;10312374;28;20201;-56
2023/11/04 15:46:48;;;;;;;11.65;2.05;;;22.80;56.20;;;;;;10324871;28;20230;-52
2023/11/04 15:51:53;;;;;;;11.43;2.10;;;22.90;56.30;;;;;;10317148;28;20197;-49
2023/11/04 15:56:57;;;;;;;37.60;5.07;;;23.00;56.50;;;;;;10323807;28;20245;-50
2023/11/04 16:02:00;;;;;;;28.67;3.70;;;23.00;56.50;;;;;;10326863;28;20205;-55
2023/11/04 16:07:05;;;;;;;21.63;3.60;;;23.20;56.60;;;;;;10323287;28;20248;-49
2023/11/04 16:12:09;;;;;;;20.88;4.00;;;23.20;57.20;;;;;;10331032;28;20624;-50
2023/11/04 16:17:13;;;;;;;16.17;2.55;;;23.30;56.70;;;;;;10335449;28;20651;-51
2023/11/04 16:22:18;;;;;;;9.95;2.40;;;23.30;56.70;;;;;;10285265;28;20201;-50
2023/11/04 16:27:22;;;;;;;9.48;2.47;;;23.40;56.80;;;;;;10322549;28;20300;-51
2023/11/04 16:32:25;;;;;;;6.45;1.92;;;23.40;56.80;;;;;;10317952;28;20280;-51
2023/11/04 16:37:30;;;;;;;6.00;2.05;;;23.40;56.80;;;;;;10319886;28;20717;-52
2023/11/04 16:42:34;;;;;;;7.68;2.00;;;23.50;56.90;;;;;;10316850;28;20225;-58
2023/11/04 16:47:39;;;;;;;9.43;2.35;;;23.50;56.90;;;;;;10321448;28;20261;-54
2023/11/04 16:52:44;;;;;;;6.72;1.75;;;23.50;56.90;;;;;;10320738;28;20276;-51
2023/11/04 16:57:48;;;;;;;6.15;1.92;;;23.60;57.00;;;;;;10324194;28;20245;-51
2023/11/04 17:02:52;;;;;;;4.78;1.65;;;23.60;57.00;;;;;;10322823;28;20233;-47
2023/11/04 17:07:57;;;;;;;5.32;1.88;;;23.60;57.00;;;;;;10322502;28;20253;-53
2023/11/04 17:13:01;;;;;;;6.22;2.95;;;23.50;57.00;;;;;;10317661;28;20256;-52
2023/11/04 17:18:04;;;;;;;9.10;3.40;;;23.50;57.00;;;;;;10321472;28;20708;-50
2023/11/04 17:23:10;;;;;;;7.50;4.03;;;23.40;57.00;;;;;;10319277;28;20264;-50
2023/11/04 17:28:14;;;;;;;7.38;4.63;;;23.40;57.70;;;;;;10323874;28;20252;-51
2023/11/04 17:33:18;;;;;;;8.88;5.07;;;23.40;57.00;;;;;;10319060;28;20194;-50
2023/11/04 17:38:24;;;;;;;7.90;4.57;;;23.40;57.00;;;;;;10322394;28;20245;-50
2023/11/04 17:43:29;;;;;;;8.77;4.60;;;23.30;57.00;;;;;;10320288;28;20300;-54
2023/11/04 17:48:33;;;;;;;8.30;4.93;;;23.40;57.10;;;;;;10316693;28;20253;-58
2023/11/04 17:53:38;;;;;;;9.57;4.40;;;23.30;57.00;;;;;;10290650;28;20741;-54
2023/11/04 17:58:42;;;;;;;10.30;4.95;;;23.30;57.10;;;;;;10315011;28;20272;-57
2023/11/04 18:03:46;;;;;;;11.68;4.97;;;23.40;57.30;;;;;;10312684;28;20907;-52
2023/11/04 18:08:51;;;;;;;14.25;5.28;;;23.40;57.40;;;;;;10318792;28;20257;-49
2023/11/04 18:13:54;;;;;;;8.07;4.25;;;23.50;57.50;;;;;;10320160;28;20202;-53
2023/11/04 18:18:58;;;;;;;6.70;3.92;;;23.50;57.50;;;;;;10281779;28;20284;-49
2023/11/04 18:24:03;;;;;;;7.28;3.78;;;23.50;57.60;;;;;;10320040;28;20248;-51
2023/11/04 18:29:07;;;;;;;6.10;3.40;;;23.60;57.80;;;;;;10319127;28;20249;-52
2023/11/04 18:34:11;;;;;;;6.43;2.97;;;23.60;58.50;;;;;;10317021;28;20234;-51
2023/11/04 18:39:16;;;;;;;5.57;3.28;;;23.60;57.90;;;;;;10319308;28;20383;-55
2023/11/04 18:44:19;;;;;;;6.20;3.13;;;23.70;58.10;;;;;;10320458;28;20252;-52
2023/11/04 18:49:23;;;;;;;5.68;2.85;;;23.70;58.10;;;;;;10323895;28;20253;-52
2023/11/04 18:54:30;;;;;;;7.70;3.13;;;23.70;58.20;;;;;;10321886;28;20233;-56
2023/11/04 18:59:34;;;;;;;7.32;3.17;;;23.70;58.20;;;;;;10325302;28;20252;-54
2023/11/04 19:04:38;;;;;;;5.78;3.10;;;23.70;58.20;;;;;;10326123;28;20229;-51
2023/11/04 19:09:43;;;;;;;6.95;3.33;;;23.70;58.30;;;;;;10322699;28;20279;-52
2023/11/04 19:14:48;;;;;;;6.00;2.95;;;23.70;58.30;;;;;;10326975;28;20229;-51
2023/11/04 19:19:51;;;;;;;7.03;3.35;;;23.80;58.40;;;;;;10323891;28;20272;-53
2023/11/04 19:24:56;;;;;;;8.25;3.17;;;23.80;58.50;;;;;;10327060;28;20237;-53
2023/11/04 19:30:00;;;;;;;12.55;4.82;;;23.80;58.50;;;;;;10283608;28;20717;-51
2023/11/04 19:35:04;;;;;;;6.38;3.90;;;23.80;58.60;;;;;;10318698;28;20233;-51
2023/11/04 19:40:11;;;;;;;8.80;3.92;;;23.80;58.60;;;;;;10303637;28;20222;-51
2023/11/04 19:45:21;;;;;;;8.35;4.10;;;23.80;58.70;;;;;;10329260;28;20302;-60
2023/11/04 19:50:26;;;;;;;8.60;4.30;;;23.80;58.70;;;;;;10263432;28;20249;-56
2023/11/04 19:55:31;;;;;;;10.27;3.38;;;23.80;58.70;;;;;;10327426;28;20301;-61
2023/11/04 20:00:35;;;;;;;6.18;3.53;;;23.70;58.80;;;;;;10323828;28;20237;-58
2023/11/04 20:05:38;;;;;;;8.07;3.72;;;23.70;58.80;;;;;;10323814;28;20922;-59
2023/11/04 20:10:43;;;;;;;8.88;3.83;;;23.70;58.90;;;;;;10321250;28;20254;-59
2023/11/04 20:15:47;;;;;;;7.43;3.60;;;23.60;58.90;;;;;;10322653;28;20654;-61
2023/11/04 20:20:50;;;;;;;8.65;3.70;;;23.60;58.90;;;;;;10321999;28;20275;-60
2023/11/04 20:25:55;;;;;;;7.57;3.50;;;23.60;59.00;;;;;;10322734;28;20253;-60
2023/11/04 20:30:59;;;;;;;5.82;3.72;;;23.60;59.10;;;;;;10321009;28;20276;-58
2023/11/04 20:36:03;;;;;;;6.85;3.55;;;23.50;59.00;;;;;;10324439;28;20645;-59
2023/11/04 20:41:08;;;;;;;7.13;3.30;;;23.50;59.00;;;;;;10291663;28;20217;-59
2023/11/04 20:46:11;;;;;;;7.40;3.70;;;23.50;59.00;;;;;;10325260;28;20504;-57
2023/11/04 20:51:16;;;;;;;5.93;3.35;;;23.50;59.00;;;;;;10325709;28;20680;-58
2023/11/04 20:56:21;;;;;;;6.40;3.22;;;23.50;59.10;;;;;;10282474;28;20249;-59
2023/11/04 21:01:25;;;;;;;5.95;3.00;;;23.50;59.10;;;;;;10295513;28;20676;-60
2023/11/04 21:06:28;;;;;;;6.72;3.42;;;23.50;59.20;;;;;;10321767;28;20245;-61
2023/11/04 21:11:33;;;;;;;8.00;3.22;;;23.50;59.20;;;;;;10323411;28;20307;-57
2023/11/04 21:16:37;;;;;;;7.97;2.85;;;23.50;59.20;;;;;;10294135;28;20794;-58
2023/11/04 21:21:41;;;;;;;6.50;3.28;;;23.40;59.10;;;;;;10322970;28;20229;-60
2023/11/04 21:26:46;;;;;;;6.72;3.08;;;23.40;59.20;;;;;;10269473;28;20658;-60
2023/11/04 21:31:50;;;;;;;5.85;2.83;;;23.40;59.20;;;;;;10322700;28;20303;-60
2023/11/04 21:36:54;;;;;;;5.25;2.92;;;23.50;59.30;;;;;;10326520;28;20219;-57
2023/11/04 21:41:59;;;;;;;5.40;2.70;;;23.50;59.30;;;;;;10321883;28;20252;-58
2023/11/04 21:47:02;;;;;;;4.90;2.38;;;23.40;59.30;;;;;;10296001;28;20852;-60
2023/11/04 21:52:06;;;;;;;6.35;2.70;;;23.40;59.30;;;;;;10291462;28;20368;-58
2023/11/04 21:57:11;;;;;;;4.85;2.58;;;23.40;59.30;;;;;;10289013;28;20677;-58
2023/11/04 22:02:15;;;;;;;4.55;2.22;;;23.40;59.40;;;;;;10327061;28;20260;-58
2023/11/04 22:07:19;;;;;;;5.75;2.67;;;23.40;59.40;;;;;;10317936;28;20245;-64
2023/11/04 22:12:24;;;;;;;3.60;2.35;;;23.40;59.40;;;;;;10318636;28;20269;-58
2023/11/04 22:17:27;;;;;;;4.03;2.45;;;23.40;59.40;;;;;;10312528;28;20256;-57
2023/11/04 22:22:31;;;;;;;3.80;2.38;;;23.40;59.40;;;;;;10331426;28;20661;-58
2023/11/04 22:27:36;;;;;;;4.50;2.45;;;23.40;59.50;;;;;;10331324;28;20257;-59
2023/11/04 22:32:40;;;;;;;5.47;2.50;;;23.40;59.50;;;;;;10327604;28;20249;-57
2023/11/04 22:37:44;;;;;;;3.75;2.45;;;23.40;59.50;;;;;;10331838;28;20252;-59
2023/11/04 22:42:49;;;;;;;4.28;2.40;;;23.40;59.50;;;;;;10308556;28;20228;-61
2023/11/04 22:47:52;;;;;;;3.35;2.20;;;23.40;59.50;;;;;;10333914;28;20260;-57
2023/11/04 22:52:56;;;;;;;4.85;2.38;;;23.40;59.60;;;;;;10333153;28;20256;-59
2023/11/04 22:58:01;;;;;;;3.13;2.20;;;23.40;60.20;;;;;;10331520;28;20654;-59
2023/11/04 23:03:05;;;;;;;2.95;2.00;;;23.40;59.60;;;;;;10331345;28;20217;-55
2023/11/04 23:08:09;;;;;;;3.92;1.63;;;23.40;59.60;;;;;;10331983;28;20249;-55
2023/11/04 23:13:14;;;;;;;3.63;2.10;;;23.40;59.60;;;;;;10333194;28;20303;-55
2023/11/04 23:18:18;;;;;;;3.05;1.75;;;23.40;59.60;;;;;;10334624;28;20249;-60
2023/11/04 23:23:22;;;;;;;4.28;2.40;;;23.40;59.60;;;;;;10332670;28;20804;-57
2023/11/04 23:28:26;;;;;;;2.90;1.70;;;23.40;59.60;;;;;;10331825;28;20291;-58
2023/11/04 23:33:31;;;;;;;3.58;1.83;;;23.40;59.60;;;;;;10323599;28;20633;-59
2023/11/04 23:38:35;;;;;;;4.20;2.10;;;23.40;59.60;;;;;;10329610;28;20261;-57
2023/11/04 23:43:40;;;;;;;3.65;1.77;;;23.50;59.70;;;;;;10328265;28;20202;-56
2023/11/04 23:48:43;;;;;;;4.22;1.90;;;23.40;59.60;;;;;;10306969;28;20771;-53
2023/11/04 23:53:47;;;;;;;5.53;1.83;;;23.40;59.60;;;;;;10331305;28;20283;-53
2023/11/04 23:58:52;;;;;;;5.68;1.70;;;23.40;59.70;;;;;;10300380;28;20225;-55
